sensor_id;sensor_type;location;lat;lon;timestamp;P1;durP1;ratioP1;P2;durP2;ratioP2
66081;SDS011;52866;51.380;0.098;2022-09-21T00:01:51;8.65;;;2.50;;
66081;SDS011;52866;51.380;0.098;2022-09-21T00:04:19;11.60;;;2.80;;
66081;SDS011;52866;51.380;0.098;2022-09-21T00:06:45;6.37;;;2.40;;
66081;SDS011;52866;51.380;0.098;2022-09-21T00:09:13;6.18;;;2.28;;
66081;SDS011;52866;51.380;0.098;2022-09-21T00:11:40;6.95;;;2.60;;
66081;SDS011;52866;51.380;0.098;2022-09-21T00:14:11;7.95;;;2.50;;
66081;SDS011;52866;51.380;0.098;2022-09-21T00:16:40;5.75;;;2.20;;
66081;SDS011;52866;51.380;0.098;2022-09-21T00:19:08;11.67;;;2.73;;
66081;SDS011;52866;51.380;0.098;2022-09-21T00:21:35;6.72;;;2.63;;
66081;SDS011;52866;51.380;0.098;2022-09-21T00:24:04;6.45;;;2.35;;
66081;SDS011;52866;51.380;0.098;2022-09-21T00:26:31;8.18;;;2.60;;
66081;SDS011;52866;51.380;0.098;2022-09-21T00:28:59;6.93;;;2.60;;
66081;SDS011;52866;51.380;0.098;2022-09-21T00:31:27;6.27;;;2.23;;
66081;SDS011;52866;51.380;0.098;2022-09-21T00:33:55;7.95;;;2.38;;
66081;SDS011;52866;51.380;0.098;2022-09-21T00:36:23;6.20;;;2.50;;
66081;SDS011;52866;51.380;0.098;2022-09-21T00:38:57;8.43;;;2.70;;
66081;SDS011;52866;51.380;0.098;2022-09-21T00:41:27;7.55;;;2.40;;
66081;SDS011;52866;51.380;0.098;2022-09-21T00:46:40;6.95;;;2.60;;
66081;SDS011;52866;51.380;0.098;2022-09-21T00:49:08;7.15;;;2.55;;
66081;SDS011;52866;51.380;0.098;2022-09-21T00:51:36;6.15;;;2.45;;
66081;SDS011;52866;51.380;0.098;2022-09-21T00:54:04;6.95;;;2.60;;
66081;SDS011;52866;51.380;0.098;2022-09-21T00:56:34;6.83;;;2.37;;
66081;SDS011;52866;51.380;0.098;2022-09-21T00:59:01;6.47;;;2.42;;
66081;SDS011;52866;51.380;0.098;2022-09-21T01:01:29;6.88;;;2.20;;
66081;SDS011;52866;51.380;0.098;2022-09-21T01:03:57;7.38;;;2.38;;
66081;SDS011;52866;51.380;0.098;2022-09-21T01:06:24;6.75;;;2.67;;
66081;SDS011;52866;51.380;0.098;2022-09-21T01:08:52;6.00;;;2.10;;
66081;SDS011;52866;51.380;0.098;2022-09-21T01:11:28;8.45;;;2.42;;
66081;SDS011;52866;51.380;0.098;2022-09-21T01:19:26;6.97;;;2.40;;
66081;SDS011;52866;51.380;0.098;2022-09-21T01:27:16;7.18;;;2.65;;
66081;SDS011;52866;51.380;0.098;2022-09-21T01:30:05;7.38;;;2.50;;
66081;SDS011;52866;51.380;0.098;2022-09-21T01:35:12;8.07;;;2.73;;
66081;SDS011;52866;51.380;0.098;2022-09-21T01:37:42;6.93;;;2.30;;
66081;SDS011;52866;51.380;0.098;2022-09-21T01:40:15;6.55;;;2.55;;
66081;SDS011;52866;51.380;0.098;2022-09-21T01:42:44;5.97;;;2.53;;
66081;SDS011;52866;51.380;0.098;2022-09-21T01:45:12;6.97;;;2.55;;
66081;SDS011;52866;51.380;0.098;2022-09-21T01:47:42;6.23;;;2.50;;
66081;SDS011;52866;51.380;0.098;2022-09-21T01:50:12;6.30;;;2.50;;
66081;SDS011;52866;51.380;0.098;2022-09-21T01:52:48;6.47;;;2.42;;
66081;SDS011;52866;51.380;0.098;2022-09-21T01:55:22;6.13;;;2.58;;
66081;SDS011;52866;51.380;0.098;2022-09-21T01:57:58;7.60;;;2.72;;
66081;SDS011;52866;51.380;0.098;2022-09-21T02:00:28;8.90;;;2.53;;
66081;SDS011;52866;51.380;0.098;2022-09-21T02:02:57;7.68;;;2.30;;
66081;SDS011;52866;51.380;0.098;2022-09-21T02:05:25;7.15;;;2.72;;
66081;SDS011;52866;51.380;0.098;2022-09-21T02:07:54;7.25;;;2.80;;
66081;SDS011;52866;51.380;0.098;2022-09-21T02:10:43;6.18;;;2.45;;
66081;SDS011;52866;51.380;0.098;2022-09-21T02:13:08;7.07;;;2.80;;
66081;SDS011;52866;51.380;0.098;2022-09-21T02:25:09;6.90;;;2.78;;
66081;SDS011;52866;51.380;0.098;2022-09-21T02:32:22;5.90;;;2.30;;
66081;SDS011;52866;51.380;0.098;2022-09-21T02:34:51;6.22;;;2.78;;
66081;SDS011;52866;51.380;0.098;2022-09-21T02:37:24;6.85;;;2.53;;
66081;SDS011;52866;51.380;0.098;2022-09-21T02:42:36;6.97;;;2.50;;
66081;SDS011;52866;51.380;0.098;2022-09-21T02:45:06;6.82;;;2.83;;
66081;SDS011;52866;51.380;0.098;2022-09-21T02:50:03;6.18;;;2.40;;
66081;SDS011;52866;51.380;0.098;2022-09-21T02:52:31;7.23;;;2.50;;
66081;SDS011;52866;51.380;0.098;2022-09-21T02:54:59;6.75;;;2.58;;
66081;SDS011;52866;51.380;0.098;2022-09-21T02:57:27;6.40;;;2.50;;
66081;SDS011;52866;51.380;0.098;2022-09-21T02:59:54;6.70;;;2.60;;
66081;SDS011;52866;51.380;0.098;2022-09-21T03:02:21;6.35;;;2.45;;
66081;SDS011;52866;51.380;0.098;2022-09-21T03:04:48;5.67;;;2.50;;
66081;SDS011;52866;51.380;0.098;2022-09-21T03:07:15;7.70;;;2.70;;
66081;SDS011;52866;51.380;0.098;2022-09-21T03:09:43;8.05;;;2.70;;
66081;SDS011;52866;51.380;0.098;2022-09-21T03:12:10;6.00;;;2.55;;
66081;SDS011;52866;51.380;0.098;2022-09-21T03:14:38;6.40;;;2.40;;
66081;SDS011;52866;51.380;0.098;2022-09-21T03:17:05;5.93;;;2.70;;
66081;SDS011;52866;51.380;0.098;2022-09-21T03:19:32;7.28;;;2.83;;
66081;SDS011;52866;51.380;0.098;2022-09-21T03:21:59;6.10;;;2.58;;
66081;SDS011;52866;51.380;0.098;2022-09-21T03:24:26;7.13;;;2.55;;
66081;SDS011;52866;51.380;0.098;2022-09-21T03:27:15;7.20;;;2.65;;
66081;SDS011;52866;51.380;0.098;2022-09-21T03:29:42;6.00;;;2.47;;
66081;SDS011;52866;51.380;0.098;2022-09-21T03:32:09;7.03;;;3.03;;
66081;SDS011;52866;51.380;0.098;2022-09-21T03:34:37;6.50;;;2.53;;
66081;SDS011;52866;51.380;0.098;2022-09-21T03:37:04;6.95;;;2.67;;
66081;SDS011;52866;51.380;0.098;2022-09-21T03:39:32;6.25;;;2.53;;
66081;SDS011;52866;51.380;0.098;2022-09-21T03:41:59;7.77;;;2.83;;
66081;SDS011;52866;51.380;0.098;2022-09-21T03:44:26;6.22;;;2.55;;
66081;SDS011;52866;51.380;0.098;2022-09-21T03:46:53;6.28;;;2.80;;
66081;SDS011;52866;51.380;0.098;2022-09-21T03:49:20;7.40;;;3.00;;
66081;SDS011;52866;51.380;0.098;2022-09-21T03:51:47;5.45;;;2.38;;
66081;SDS011;52866;51.380;0.098;2022-09-21T03:54:14;6.60;;;2.57;;
66081;SDS011;52866;51.380;0.098;2022-09-21T03:56:41;8.07;;;3.00;;
66081;SDS011;52866;51.380;0.098;2022-09-21T03:59:08;6.80;;;2.47;;
66081;SDS011;52866;51.380;0.098;2022-09-21T04:01:40;6.78;;;2.58;;
66081;SDS011;52866;51.380;0.098;2022-09-21T04:04:07;6.90;;;2.78;;
66081;SDS011;52866;51.380;0.098;2022-09-21T04:06:35;6.30;;;2.33;;
66081;SDS011;52866;51.380;0.098;2022-09-21T04:09:02;6.82;;;2.78;;
66081;SDS011;52866;51.380;0.098;2022-09-21T04:11:29;6.47;;;2.88;;
66081;SDS011;52866;51.380;0.098;2022-09-21T04:13:59;6.40;;;2.38;;
66081;SDS011;52866;51.380;0.098;2022-09-21T04:16:26;6.47;;;2.45;;
66081;SDS011;52866;51.380;0.098;2022-09-21T04:18:54;6.77;;;2.50;;
66081;SDS011;52866;51.380;0.098;2022-09-21T04:21:21;6.07;;;2.58;;
66081;SDS011;52866;51.380;0.098;2022-09-21T04:23:48;6.22;;;2.30;;
66081;SDS011;52866;51.380;0.098;2022-09-21T04:26:19;6.10;;;2.42;;
66081;SDS011;52866;51.380;0.098;2022-09-21T04:28:47;6.70;;;2.50;;
66081;SDS011;52866;51.380;0.098;2022-09-21T04:31:14;6.60;;;2.27;;
66081;SDS011;52866;51.380;0.098;2022-09-21T04:33:41;7.05;;;2.50;;
66081;SDS011;52866;51.380;0.098;2022-09-21T04:36:08;6.22;;;2.53;;
66081;SDS011;52866;51.380;0.098;2022-09-21T04:38:35;6.30;;;2.35;;
66081;SDS011;52866;51.380;0.098;2022-09-21T04:41:02;7.32;;;2.60;;
66081;SDS011;52866;51.380;0.098;2022-09-21T04:43:29;6.00;;;2.27;;
66081;SDS011;52866;51.380;0.098;2022-09-21T04:45:56;6.60;;;2.33;;
66081;SDS011;52866;51.380;0.098;2022-09-21T04:48:23;7.38;;;2.35;;
66081;SDS011;52866;51.380;0.098;2022-09-21T04:50:50;6.45;;;2.50;;
66081;SDS011;52866;51.380;0.098;2022-09-21T04:53:17;6.65;;;2.38;;
66081;SDS011;52866;51.380;0.098;2022-09-21T04:55:44;6.30;;;2.33;;
66081;SDS011;52866;51.380;0.098;2022-09-21T04:58:12;5.60;;;2.30;;
66081;SDS011;52866;51.380;0.098;2022-09-21T05:00:39;7.20;;;2.45;;
66081;SDS011;52866;51.380;0.098;2022-09-21T05:03:06;6.85;;;2.60;;
66081;SDS011;52866;51.380;0.098;2022-09-21T05:05:33;6.03;;;2.30;;
66081;SDS011;52866;51.380;0.098;2022-09-21T05:08:00;5.93;;;2.40;;
66081;SDS011;52866;51.380;0.098;2022-09-21T05:10:27;6.28;;;2.75;;
66081;SDS011;52866;51.380;0.098;2022-09-21T05:12:54;5.95;;;2.40;;
66081;SDS011;52866;51.380;0.098;2022-09-21T05:15:21;6.72;;;2.30;;
66081;SDS011;52866;51.380;0.098;2022-09-21T05:17:48;6.10;;;2.45;;
66081;SDS011;52866;51.380;0.098;2022-09-21T05:20:15;7.30;;;2.37;;
66081;SDS011;52866;51.380;0.098;2022-09-21T05:22:42;6.18;;;2.28;;
66081;SDS011;52866;51.380;0.098;2022-09-21T05:25:09;6.95;;;2.80;;
66081;SDS011;52866;51.380;0.098;2022-09-21T05:27:36;6.22;;;2.47;;
66081;SDS011;52866;51.380;0.098;2022-09-21T05:30:04;8.30;;;2.60;;
66081;SDS011;52866;51.380;0.098;2022-09-21T05:35:05;7.40;;;2.55;;
66081;SDS011;52866;51.380;0.098;2022-09-21T05:40:07;5.68;;;2.38;;
66081;SDS011;52866;51.380;0.098;2022-09-21T05:42:36;6.18;;;2.53;;
66081;SDS011;52866;51.380;0.098;2022-09-21T05:45:03;5.50;;;2.00;;
66081;SDS011;52866;51.380;0.098;2022-09-21T05:58:04;6.60;;;2.43;;
66081;SDS011;52866;51.380;0.098;2022-09-21T06:00:38;7.03;;;2.28;;
66081;SDS011;52866;51.380;0.098;2022-09-21T06:03:24;6.43;;;2.10;;
66081;SDS011;52866;51.380;0.098;2022-09-21T06:05:52;5.97;;;2.40;;
66081;SDS011;52866;51.380;0.098;2022-09-21T06:08:19;5.72;;;2.35;;
66081;SDS011;52866;51.380;0.098;2022-09-21T06:10:46;6.97;;;2.20;;
66081;SDS011;52866;51.380;0.098;2022-09-21T06:13:13;6.78;;;2.20;;
66081;SDS011;52866;51.380;0.098;2022-09-21T06:15:40;5.68;;;2.20;;
66081;SDS011;52866;51.380;0.098;2022-09-21T06:18:08;5.80;;;2.50;;
66081;SDS011;52866;51.380;0.098;2022-09-21T06:20:40;6.60;;;2.60;;
66081;SDS011;52866;51.380;0.098;2022-09-21T06:23:07;5.90;;;2.33;;
66081;SDS011;52866;51.380;0.098;2022-09-21T06:25:35;8.68;;;2.58;;
66081;SDS011;52866;51.380;0.098;2022-09-21T06:28:05;6.40;;;2.28;;
66081;SDS011;52866;51.380;0.098;2022-09-21T06:30:33;6.70;;;2.70;;
66081;SDS011;52866;51.380;0.098;2022-09-21T06:33:00;5.95;;;2.40;;
66081;SDS011;52866;51.380;0.098;2022-09-21T06:35:28;6.30;;;2.50;;
66081;SDS011;52866;51.380;0.098;2022-09-21T06:37:56;8.75;;;2.65;;
66081;SDS011;52866;51.380;0.098;2022-09-21T06:40:24;6.22;;;2.50;;
66081;SDS011;52866;51.380;0.098;2022-09-21T06:42:54;5.95;;;2.22;;
66081;SDS011;52866;51.380;0.098;2022-09-21T06:45:21;7.05;;;2.70;;
66081;SDS011;52866;51.380;0.098;2022-09-21T06:47:48;6.50;;;2.60;;
66081;SDS011;52866;51.380;0.098;2022-09-21T06:50:15;8.05;;;2.83;;
66081;SDS011;52866;51.380;0.098;2022-09-21T06:52:42;7.60;;;2.65;;
66081;SDS011;52866;51.380;0.098;2022-09-21T06:55:09;10.57;;;2.67;;
66081;SDS011;52866;51.380;0.098;2022-09-21T06:57:36;9.32;;;2.90;;
66081;SDS011;52866;51.380;0.098;2022-09-21T07:00:07;8.97;;;3.00;;
66081;SDS011;52866;51.380;0.098;2022-09-21T07:02:35;9.05;;;2.60;;
66081;SDS011;52866;51.380;0.098;2022-09-21T07:05:02;8.85;;;2.72;;
66081;SDS011;52866;51.380;0.098;2022-09-21T07:07:29;9.98;;;2.60;;
66081;SDS011;52866;51.380;0.098;2022-09-21T07:09:57;13.95;;;2.90;;
66081;SDS011;52866;51.380;0.098;2022-09-21T07:12:41;10.60;;;2.30;;
66081;SDS011;52866;51.380;0.098;2022-09-21T07:15:09;10.65;;;2.90;;
66081;SDS011;52866;51.380;0.098;2022-09-21T07:17:37;12.32;;;3.53;;
66081;SDS011;52866;51.380;0.098;2022-09-21T07:20:04;9.55;;;2.80;;
66081;SDS011;52866;51.380;0.098;2022-09-21T07:22:33;9.57;;;2.80;;
66081;SDS011;52866;51.380;0.098;2022-09-21T07:25:01;7.67;;;2.57;;
66081;SDS011;52866;51.380;0.098;2022-09-21T07:27:28;8.27;;;2.83;;
66081;SDS011;52866;51.380;0.098;2022-09-21T07:29:55;12.48;;;3.00;;
66081;SDS011;52866;51.380;0.098;2022-09-21T07:32:23;8.95;;;3.00;;
66081;SDS011;52866;51.380;0.098;2022-09-21T07:34:51;9.50;;;2.95;;
66081;SDS011;52866;51.380;0.098;2022-09-21T07:37:22;8.00;;;2.53;;
66081;SDS011;52866;51.380;0.098;2022-09-21T07:39:50;9.95;;;2.63;;
66081;SDS011;52866;51.380;0.098;2022-09-21T07:42:18;10.48;;;2.85;;
66081;SDS011;52866;51.380;0.098;2022-09-21T07:44:46;8.68;;;2.85;;
66081;SDS011;52866;51.380;0.098;2022-09-21T07:47:13;8.90;;;2.85;;
66081;SDS011;52866;51.380;0.098;2022-09-21T07:49:41;12.60;;;2.73;;
66081;SDS011;52866;51.380;0.098;2022-09-21T07:52:08;10.35;;;2.80;;
66081;SDS011;52866;51.380;0.098;2022-09-21T07:54:37;9.35;;;2.58;;
66081;SDS011;52866;51.380;0.098;2022-09-21T07:57:04;13.85;;;2.92;;
66081;SDS011;52866;51.380;0.098;2022-09-21T07:59:49;10.57;;;2.60;;
66081;SDS011;52866;51.380;0.098;2022-09-21T08:02:16;10.67;;;2.70;;
66081;SDS011;52866;51.380;0.098;2022-09-21T08:04:44;10.57;;;3.00;;
66081;SDS011;52866;51.380;0.098;2022-09-21T08:07:11;10.95;;;3.08;;
66081;SDS011;52866;51.380;0.098;2022-09-21T08:09:39;12.90;;;3.03;;
66081;SDS011;52866;51.380;0.098;2022-09-21T08:12:07;13.43;;;3.53;;
66081;SDS011;52866;51.380;0.098;2022-09-21T08:14:34;13.43;;;3.00;;
66081;SDS011;52866;51.380;0.098;2022-09-21T08:17:02;17.30;;;3.10;;
66081;SDS011;52866;51.380;0.098;2022-09-21T08:19:29;12.95;;;3.20;;
66081;SDS011;52866;51.380;0.098;2022-09-21T08:21:56;8.60;;;2.75;;
66081;SDS011;52866;51.380;0.098;2022-09-21T08:24:23;12.85;;;2.95;;
66081;SDS011;52866;51.380;0.098;2022-09-21T08:26:53;12.63;;;2.70;;
66081;SDS011;52866;51.380;0.098;2022-09-21T08:29:22;8.85;;;3.00;;
66081;SDS011;52866;51.380;0.098;2022-09-21T08:31:49;13.40;;;2.80;;
66081;SDS011;52866;51.380;0.098;2022-09-21T08:34:16;11.50;;;3.05;;
66081;SDS011;52866;51.380;0.098;2022-09-21T08:36:43;9.02;;;3.20;;
66081;SDS011;52866;51.380;0.098;2022-09-21T08:39:10;9.53;;;2.93;;
66081;SDS011;52866;51.380;0.098;2022-09-21T08:41:48;8.23;;;2.65;;
66081;SDS011;52866;51.380;0.098;2022-09-21T08:44:19;14.43;;;3.03;;
66081;SDS011;52866;51.380;0.098;2022-09-21T08:46:47;9.93;;;2.80;;
66081;SDS011;52866;51.380;0.098;2022-09-21T08:49:20;12.25;;;2.90;;
66081;SDS011;52866;51.380;0.098;2022-09-21T08:51:50;11.63;;;2.93;;
66081;SDS011;52866;51.380;0.098;2022-09-21T08:54:41;9.27;;;3.05;;
66081;SDS011;52866;51.380;0.098;2022-09-21T08:57:08;9.77;;;2.80;;
66081;SDS011;52866;51.380;0.098;2022-09-21T08:59:39;7.88;;;2.30;;
66081;SDS011;52866;51.380;0.098;2022-09-21T09:07:30;6.88;;;2.47;;
66081;SDS011;52866;51.380;0.098;2022-09-21T09:10:14;8.27;;;2.40;;
66081;SDS011;52866;51.380;0.098;2022-09-21T09:13:00;6.90;;;2.67;;
66081;SDS011;52866;51.380;0.098;2022-09-21T09:15:38;6.95;;;2.28;;
66081;SDS011;52866;51.380;0.098;2022-09-21T09:18:13;8.93;;;2.50;;
66081;SDS011;52866;51.380;0.098;2022-09-21T09:20:43;8.63;;;2.70;;
66081;SDS011;52866;51.380;0.098;2022-09-21T09:25:58;6.85;;;2.67;;
66081;SDS011;52866;51.380;0.098;2022-09-21T09:28:35;6.47;;;2.20;;
66081;SDS011;52866;51.380;0.098;2022-09-21T09:33:47;7.65;;;2.40;;
66081;SDS011;52866;51.380;0.098;2022-09-21T09:36:15;7.22;;;2.53;;
66081;SDS011;52866;51.380;0.098;2022-09-21T09:38:44;9.98;;;2.40;;
66081;SDS011;52866;51.380;0.098;2022-09-21T09:51:49;8.35;;;2.70;;
66081;SDS011;52866;51.380;0.098;2022-09-21T09:54:17;10.93;;;3.00;;
66081;SDS011;52866;51.380;0.098;2022-09-21T09:56:44;9.40;;;2.57;;
66081;SDS011;52866;51.380;0.098;2022-09-21T09:59:16;9.65;;;2.70;;
66081;SDS011;52866;51.380;0.098;2022-09-21T10:01:45;10.68;;;2.70;;
66081;SDS011;52866;51.380;0.098;2022-09-21T10:04:23;9.50;;;2.50;;
66081;SDS011;52866;51.380;0.098;2022-09-21T10:06:50;10.35;;;2.78;;
66081;SDS011;52866;51.380;0.098;2022-09-21T10:09:19;9.47;;;2.47;;
66081;SDS011;52866;51.380;0.098;2022-09-21T10:11:46;11.23;;;2.72;;
66081;SDS011;52866;51.380;0.098;2022-09-21T10:14:18;9.80;;;2.95;;
66081;SDS011;52866;51.380;0.098;2022-09-21T10:16:47;9.18;;;2.60;;
66081;SDS011;52866;51.380;0.098;2022-09-21T10:19:16;8.20;;;2.30;;
66081;SDS011;52866;51.380;0.098;2022-09-21T10:21:44;8.77;;;2.27;;
66081;SDS011;52866;51.380;0.098;2022-09-21T10:24:22;8.98;;;2.53;;
66081;SDS011;52866;51.380;0.098;2022-09-21T10:26:50;9.57;;;2.50;;
66081;SDS011;52866;51.380;0.098;2022-09-21T10:32:25;9.90;;;2.50;;
66081;SDS011;52866;51.380;0.098;2022-09-21T10:37:33;11.05;;;2.15;;
66081;SDS011;52866;51.380;0.098;2022-09-21T10:40:03;7.97;;;2.22;;
66081;SDS011;52866;51.380;0.098;2022-09-21T10:42:35;14.48;;;2.40;;
66081;SDS011;52866;51.380;0.098;2022-09-21T10:45:12;9.50;;;2.33;;
66081;SDS011;52866;51.380;0.098;2022-09-21T10:47:41;9.00;;;2.47;;
66081;SDS011;52866;51.380;0.098;2022-09-21T10:50:27;10.27;;;2.97;;
66081;SDS011;52866;51.380;0.098;2022-09-21T10:52:55;10.23;;;2.72;;
66081;SDS011;52866;51.380;0.098;2022-09-21T10:55:24;8.68;;;2.42;;
66081;SDS011;52866;51.380;0.098;2022-09-21T10:57:51;11.50;;;2.20;;
66081;SDS011;52866;51.380;0.098;2022-09-21T11:02:55;13.82;;;2.60;;
66081;SDS011;52866;51.380;0.098;2022-09-21T11:05:33;16.00;;;3.00;;
66081;SDS011;52866;51.380;0.098;2022-09-21T11:08:23;11.65;;;2.85;;
66081;SDS011;52866;51.380;0.098;2022-09-21T11:10:53;13.05;;;2.63;;
66081;SDS011;52866;51.380;0.098;2022-09-21T11:13:28;11.43;;;2.60;;
66081;SDS011;52866;51.380;0.098;2022-09-21T11:21:16;9.88;;;2.97;;
66081;SDS011;52866;51.380;0.098;2022-09-21T11:23:48;9.85;;;2.72;;
66081;SDS011;52866;51.380;0.098;2022-09-21T11:26:31;11.70;;;3.10;;
66081;SDS011;52866;51.380;0.098;2022-09-21T11:31:43;11.02;;;2.63;;
66081;SDS011;52866;51.380;0.098;2022-09-21T11:37:04;10.98;;;2.83;;
66081;SDS011;52866;51.380;0.098;2022-09-21T11:42:15;9.38;;;2.67;;
66081;SDS011;52866;51.380;0.098;2022-09-21T11:44:51;6.28;;;2.60;;
66081;SDS011;52866;51.380;0.098;2022-09-21T12:00:56;14.35;;;2.75;;
66081;SDS011;52866;51.380;0.098;2022-09-21T12:06:20;7.10;;;2.50;;
66081;SDS011;52866;51.380;0.098;2022-09-21T12:11:39;7.22;;;2.97;;
66081;SDS011;52866;51.380;0.098;2022-09-21T12:14:13;8.27;;;2.60;;
66081;SDS011;52866;51.380;0.098;2022-09-21T12:16:47;13.75;;;2.97;;
66081;SDS011;52866;51.380;0.098;2022-09-21T12:22:07;10.43;;;2.63;;
66081;SDS011;52866;51.380;0.098;2022-09-21T12:24:39;7.10;;;2.20;;
66081;SDS011;52866;51.380;0.098;2022-09-21T12:27:33;8.38;;;2.45;;
66081;SDS011;52866;51.380;0.098;2022-09-21T12:30:10;8.10;;;2.30;;
66081;SDS011;52866;51.380;0.098;2022-09-21T12:35:06;8.77;;;2.63;;
66081;SDS011;52866;51.380;0.098;2022-09-21T12:37:56;9.07;;;2.22;;
66081;SDS011;52866;51.380;0.098;2022-09-21T12:40:32;6.85;;;2.42;;
66081;SDS011;52866;51.380;0.098;2022-09-21T12:43:04;7.93;;;2.25;;
66081;SDS011;52866;51.380;0.098;2022-09-21T12:45:40;7.50;;;2.43;;
66081;SDS011;52866;51.380;0.098;2022-09-21T12:48:11;7.88;;;2.35;;
66081;SDS011;52866;51.380;0.098;2022-09-21T12:50:47;9.48;;;2.30;;
66081;SDS011;52866;51.380;0.098;2022-09-21T12:53:16;11.18;;;2.42;;
66081;SDS011;52866;51.380;0.098;2022-09-21T12:55:48;7.63;;;2.30;;
66081;SDS011;52866;51.380;0.098;2022-09-21T12:58:41;7.77;;;2.33;;
66081;SDS011;52866;51.380;0.098;2022-09-21T13:01:12;7.03;;;2.25;;
66081;SDS011;52866;51.380;0.098;2022-09-21T13:03:46;6.75;;;2.58;;
66081;SDS011;52866;51.380;0.098;2022-09-21T13:08:52;11.90;;;2.40;;
66081;SDS011;52866;51.380;0.098;2022-09-21T13:11:20;11.27;;;2.67;;
66081;SDS011;52866;51.380;0.098;2022-09-21T13:13:49;9.40;;;2.35;;
66081;SDS011;52866;51.380;0.098;2022-09-21T13:16:23;11.25;;;2.90;;
66081;SDS011;52866;51.380;0.098;2022-09-21T13:18:55;9.68;;;2.50;;
66081;SDS011;52866;51.380;0.098;2022-09-21T13:21:25;8.52;;;2.05;;
66081;SDS011;52866;51.380;0.098;2022-09-21T13:23:54;8.87;;;2.60;;
66081;SDS011;52866;51.380;0.098;2022-09-21T13:26:41;8.70;;;2.30;;
66081;SDS011;52866;51.380;0.098;2022-09-21T13:34:24;9.15;;;2.20;;
66081;SDS011;52866;51.380;0.098;2022-09-21T13:37:13;8.83;;;2.47;;
66081;SDS011;52866;51.380;0.098;2022-09-21T13:44:55;7.07;;;2.25;;
66081;SDS011;52866;51.380;0.098;2022-09-21T13:47:30;8.00;;;2.42;;
66081;SDS011;52866;51.380;0.098;2022-09-21T13:50:02;9.50;;;1.90;;
66081;SDS011;52866;51.380;0.098;2022-09-21T13:55:05;9.98;;;2.65;;
66081;SDS011;52866;51.380;0.098;2022-09-21T13:57:40;9.82;;;2.33;;
66081;SDS011;52866;51.380;0.098;2022-09-21T14:02:39;9.20;;;2.57;;
66081;SDS011;52866;51.380;0.098;2022-09-21T14:07:53;9.77;;;2.60;;
66081;SDS011;52866;51.380;0.098;2022-09-21T14:10:21;8.38;;;2.40;;
66081;SDS011;52866;51.380;0.098;2022-09-21T14:12:49;10.73;;;2.20;;
66081;SDS011;52866;51.380;0.098;2022-09-21T14:18:06;8.95;;;2.15;;
66081;SDS011;52866;51.380;0.098;2022-09-21T14:20:33;21.35;;;3.55;;
66081;SDS011;52866;51.380;0.098;2022-09-21T14:23:25;16.15;;;3.25;;
66081;SDS011;52866;51.380;0.098;2022-09-21T14:25:54;15.93;;;3.05;;
66081;SDS011;52866;51.380;0.098;2022-09-21T14:28:33;13.23;;;2.87;;
66081;SDS011;52866;51.380;0.098;2022-09-21T14:31:04;13.07;;;2.65;;
66081;SDS011;52866;51.380;0.098;2022-09-21T14:33:45;11.50;;;2.70;;
66081;SDS011;52866;51.380;0.098;2022-09-21T14:36:15;9.35;;;2.40;;
66081;SDS011;52866;51.380;0.098;2022-09-21T14:38:46;10.85;;;2.30;;
66081;SDS011;52866;51.380;0.098;2022-09-21T14:41:21;13.77;;;2.60;;
66081;SDS011;52866;51.380;0.098;2022-09-21T14:43:52;12.90;;;2.83;;
66081;SDS011;52866;51.380;0.098;2022-09-21T14:46:23;13.00;;;3.10;;
66081;SDS011;52866;51.380;0.098;2022-09-21T14:53:58;11.23;;;2.47;;
66081;SDS011;52866;51.380;0.098;2022-09-21T15:02:22;10.38;;;2.40;;
66081;SDS011;52866;51.380;0.098;2022-09-21T15:10:23;10.07;;;2.30;;
66081;SDS011;52866;51.380;0.098;2022-09-21T15:13:18;10.77;;;2.40;;
66081;SDS011;52866;51.380;0.098;2022-09-21T15:15:55;8.65;;;2.10;;
66081;SDS011;52866;51.380;0.098;2022-09-21T15:18:24;7.90;;;2.05;;
66081;SDS011;52866;51.380;0.098;2022-09-21T15:20:59;9.33;;;2.20;;
66081;SDS011;52866;51.380;0.098;2022-09-21T15:23:33;8.20;;;2.20;;
66081;SDS011;52866;51.380;0.098;2022-09-21T15:26:09;7.15;;;2.10;;
66081;SDS011;52866;51.380;0.098;2022-09-21T15:28:42;8.63;;;2.33;;
66081;SDS011;52866;51.380;0.098;2022-09-21T15:31:35;6.20;;;2.03;;
66081;SDS011;52866;51.380;0.098;2022-09-21T15:34:03;8.80;;;2.13;;
66081;SDS011;52866;51.380;0.098;2022-09-21T15:36:30;8.40;;;2.03;;
66081;SDS011;52866;51.380;0.098;2022-09-21T15:38:59;8.77;;;2.00;;
66081;SDS011;52866;51.380;0.098;2022-09-21T15:44:11;7.32;;;1.95;;
66081;SDS011;52866;51.380;0.098;2022-09-21T15:46:38;6.23;;;1.73;;
66081;SDS011;52866;51.380;0.098;2022-09-21T15:49:14;6.43;;;1.90;;
66081;SDS011;52866;51.380;0.098;2022-09-21T15:51:43;9.57;;;2.40;;
66081;SDS011;52866;51.380;0.098;2022-09-21T15:56:47;7.07;;;1.90;;
66081;SDS011;52866;51.380;0.098;2022-09-21T15:59:18;8.00;;;1.90;;
66081;SDS011;52866;51.380;0.098;2022-09-21T16:01:51;8.27;;;2.33;;
66081;SDS011;52866;51.380;0.098;2022-09-21T16:04:19;7.68;;;2.00;;
66081;SDS011;52866;51.380;0.098;2022-09-21T16:07:23;7.72;;;2.15;;
66081;SDS011;52866;51.380;0.098;2022-09-21T16:09:40;7.32;;;1.98;;
66081;SDS011;52866;51.380;0.098;2022-09-21T16:14:58;7.55;;;1.90;;
66081;SDS011;52866;51.380;0.098;2022-09-21T16:17:36;7.00;;;2.15;;
66081;SDS011;52866;51.380;0.098;2022-09-21T16:20:35;6.03;;;1.80;;
66081;SDS011;52866;51.380;0.098;2022-09-21T16:22:52;5.90;;;2.22;;
66081;SDS011;52866;51.380;0.098;2022-09-21T16:27:55;6.63;;;2.08;;
66081;SDS011;52866;51.380;0.098;2022-09-21T16:30:45;9.57;;;2.13;;
66081;SDS011;52866;51.380;0.098;2022-09-21T16:35:56;6.07;;;1.75;;
